Port Nolloth, South Africa
Current Conditions -  °F | °C
As of 7:00 AM on Saturday 29 Nov 2014 (Local Time) from FAUP Reporting Station
Clear Clear  
Wind Chill: 66°   Ceiling: Unl
Heat Index: 66°   Visibility: 6mi
Dew Point: 30°   Wind: 3mph
Humidity: 26%   Direction: 240°WSW
Pressure: 30.03"   Gusts: NA
Location:  29.24°S, 16.88°E
Report Text: FAUP 290500Z 24003KT CAVOK 19/M01 Q1017 NOSIG
Loading
Personal Weather Stations






























Interactive Weather Map New forecast layout! Learn more

10-Day Weather Forecast

Advertisements
Track Severe Weather on mobile